createdAt,value
2023-01-11T00:00:49.667Z,0.97
2023-01-11T00:03:16.199Z,1.47
2023-01-11T00:05:44.040Z,1.27
2023-01-11T00:08:11.693Z,1.50
2023-01-11T00:10:38.443Z,1.80
2023-01-11T00:13:05.374Z,1.23
2023-01-11T00:15:31.755Z,1.20
2023-01-11T00:17:58.396Z,1.50
2023-01-11T00:20:25.095Z,1.80
2023-01-11T00:22:51.945Z,2.10
2023-01-11T00:25:18.420Z,1.40
2023-01-11T00:27:47.076Z,1.20
2023-01-11T00:30:13.676Z,1.23
2023-01-11T00:32:40.032Z,1.30
2023-01-11T00:35:07.119Z,1.00
2023-01-11T00:37:33.501Z,0.93
2023-01-11T00:39:59.946Z,0.90
2023-01-11T00:42:45.021Z,2.10
2023-01-11T00:45:29.639Z,1.00
2023-01-11T00:48:00.211Z,1.20
2023-01-11T00:50:29.330Z,1.37
2023-01-11T00:52:56.436Z,1.27
2023-01-11T00:55:24.154Z,0.93
2023-01-11T00:57:50.823Z,1.20
2023-01-11T01:00:18.543Z,0.93
2023-01-11T01:02:45.210Z,1.10
2023-01-11T01:05:12.073Z,0.90
2023-01-11T01:07:38.654Z,0.97
2023-01-11T01:10:05.843Z,3.13
2023-01-11T01:12:52.307Z,0.90
2023-01-11T01:15:18.971Z,1.17
2023-01-11T01:17:46.122Z,0.90
2023-01-11T01:20:13.423Z,0.87
2023-01-11T01:22:39.824Z,1.07
2023-01-11T01:25:06.426Z,1.00
2023-01-11T01:27:32.825Z,1.10
2023-01-11T01:29:59.184Z,0.83
2023-01-11T01:32:25.630Z,0.90
2023-01-11T01:34:51.987Z,0.90
2023-01-11T01:37:18.397Z,1.07
2023-01-11T01:39:44.746Z,1.00
2023-01-11T01:42:16.153Z,1.10
2023-01-11T01:45:00.822Z,1.00
2023-01-11T01:47:38.055Z,1.07
2023-01-11T01:50:15.761Z,0.90
2023-01-11T01:52:46.416Z,0.93
2023-01-11T01:55:18.542Z,1.07
2023-01-11T01:57:45.579Z,1.17
2023-01-11T02:00:13.436Z,0.90
2023-01-11T02:02:43.706Z,0.97
2023-01-11T02:05:11.064Z,1.07
2023-01-11T02:07:40.261Z,1.10
2023-01-11T02:10:15.052Z,0.90
2023-01-11T02:12:51.802Z,0.93
2023-01-11T02:15:21.573Z,0.87
2023-01-11T02:17:48.115Z,0.73
2023-01-11T02:20:30.237Z,1.20
2023-01-11T02:23:05.911Z,1.20
2023-01-11T02:25:51.530Z,0.70
2023-01-11T02:28:30.141Z,1.93
2023-01-11T02:31:23.634Z,1.00
2023-01-11T02:34:28.523Z,1.10
2023-01-11T02:37:23.043Z,1.10
2023-01-11T02:39:57.004Z,0.80
2023-01-11T02:42:51.279Z,0.90
2023-01-11T02:45:23.804Z,0.93
2023-01-11T02:48:04.870Z,1.00
2023-01-11T02:50:50.405Z,1.27
2023-01-11T02:53:30.283Z,1.00
2023-01-11T02:55:59.718Z,0.93
2023-01-11T02:58:30.252Z,0.80
2023-01-11T03:00:58.410Z,0.90
2023-01-11T03:03:27.586Z,0.90
2023-01-11T03:05:59.323Z,1.00
2023-01-11T03:08:46.700Z,0.90
2023-01-11T03:11:36.929Z,1.90
2023-01-11T03:14:26.117Z,1.10
2023-01-11T03:17:09.442Z,1.10
2023-01-11T03:19:42.485Z,1.03
2023-01-11T03:22:28.127Z,0.97
2023-01-11T03:25:23.370Z,0.80
2023-01-11T03:27:56.234Z,0.83
2023-01-11T03:30:44.767Z,1.00
2023-01-11T03:33:30.459Z,1.30
2023-01-11T03:36:27.863Z,1.23
2023-01-11T03:39:00.508Z,2.37
2023-01-11T03:41:32.334Z,1.23
2023-01-11T03:44:01.191Z,1.90
2023-01-11T03:46:31.133Z,2.13
2023-01-11T03:49:27.272Z,1.43
2023-01-11T03:51:54.880Z,1.43
2023-01-11T03:54:24.311Z,3.43
2023-01-11T03:57:04.780Z,1.93
2023-01-11T03:59:31.793Z,1.63
2023-01-11T04:01:59.029Z,2.83
2023-01-11T04:04:25.525Z,2.73
2023-01-11T04:06:52.010Z,3.47
2023-01-11T04:09:18.749Z,2.70
2023-01-11T04:11:45.497Z,2.50
2023-01-11T04:14:12.013Z,1.97
2023-01-11T04:16:38.521Z,1.87
2023-01-11T04:19:04.938Z,1.67
2023-01-11T04:21:31.321Z,4.97
2023-01-11T04:23:57.730Z,2.17
2023-01-11T04:26:24.104Z,3.20
2023-01-11T04:28:52.769Z,4.37
2023-01-11T04:31:20.468Z,3.00
2023-01-11T04:33:46.893Z,2.60
2023-01-11T04:36:13.441Z,1.80
2023-01-11T04:38:39.825Z,1.70
2023-01-11T04:41:24.555Z,1.63
2023-01-11T04:43:54.212Z,1.00
2023-01-11T04:46:20.618Z,1.20
2023-01-11T04:48:46.995Z,2.37
2023-01-11T04:51:13.342Z,1.60
2023-01-11T04:53:39.842Z,2.00
2023-01-11T04:56:07.076Z,1.10
2023-01-11T04:58:37.970Z,1.20
2023-01-11T05:01:12.190Z,1.20
2023-01-11T05:03:38.694Z,1.10
2023-01-11T05:06:05.435Z,1.30
2023-01-11T05:08:32.296Z,1.20
2023-01-11T05:11:01.649Z,1.00
2023-01-11T05:13:43.210Z,1.00
2023-01-11T05:16:14.571Z,2.03
2023-01-11T05:18:45.563Z,1.13
2023-01-11T05:21:14.632Z,1.10
2023-01-11T05:23:41.704Z,1.10
2023-01-11T05:26:14.370Z,1.03
2023-01-11T05:28:40.968Z,1.03
2023-01-11T05:31:07.327Z,1.10
2023-01-11T05:33:33.693Z,3.10
2023-01-11T05:36:01.925Z,1.20
2023-01-11T05:38:29.032Z,1.20
2023-01-11T05:41:00.800Z,1.13
2023-01-11T05:43:29.071Z,1.00
2023-01-11T05:45:57.283Z,1.10
2023-01-11T05:48:25.117Z,1.33
2023-01-11T05:50:52.995Z,1.30
2023-01-11T05:53:20.635Z,1.20
2023-01-11T05:55:57.499Z,1.43
2023-01-11T05:58:26.466Z,1.43
2023-01-11T06:00:55.566Z,1.27
2023-01-11T06:03:24.162Z,2.60
2023-01-11T06:05:51.889Z,1.10
2023-01-11T06:08:18.623Z,3.60
2023-01-11T06:10:55.848Z,1.50
2023-01-11T06:13:26.646Z,1.47
2023-01-11T06:16:15.200Z,1.30
2023-01-11T06:18:44.444Z,4.20
2023-01-11T06:21:12.224Z,2.13
2023-01-11T06:23:41.764Z,1.20
2023-01-11T06:26:10.867Z,1.40
2023-01-11T06:28:37.882Z,1.50
2023-01-11T06:31:05.634Z,1.10
2023-01-11T06:33:32.859Z,1.40
2023-01-11T06:36:02.324Z,1.43
2023-01-11T06:38:28.720Z,1.27
2023-01-11T06:41:00.688Z,1.20
2023-01-11T06:43:29.150Z,3.23
2023-01-11T06:45:56.631Z,1.50
2023-01-11T06:48:23.531Z,1.33
2023-01-11T06:50:51.942Z,2.10
2023-01-11T06:53:18.461Z,2.50
2023-01-11T06:55:45.298Z,2.30
2023-01-11T06:58:11.718Z,2.23
2023-01-11T07:00:38.411Z,1.70
2023-01-11T07:03:06.158Z,2.23
2023-01-11T07:05:36.475Z,2.83
2023-01-11T07:08:03.390Z,2.53
2023-01-11T07:10:29.911Z,3.00
2023-01-11T07:12:56.394Z,3.40
2023-01-11T07:15:22.851Z,3.37
2023-01-11T07:17:56.780Z,4.50
2023-01-11T07:20:24.325Z,4.83
2023-01-11T07:22:51.414Z,5.60
2023-01-11T07:25:18.437Z,5.80
2023-01-11T07:27:44.789Z,5.37
2023-01-11T07:30:11.827Z,5.67
2023-01-11T07:32:38.430Z,5.77
2023-01-11T07:35:05.356Z,6.63
2023-01-11T07:37:35.137Z,7.03
2023-01-11T07:40:01.558Z,7.20
2023-01-11T07:42:46.560Z,6.60
2023-01-11T07:45:13.062Z,6.93
2023-01-11T07:47:39.531Z,8.67
2023-01-11T07:50:06.571Z,6.20
2023-01-11T07:52:32.915Z,9.00
2023-01-11T07:55:02.442Z,6.60
2023-01-11T07:57:29.725Z,6.33
2023-01-11T07:59:56.174Z,5.90
2023-01-11T08:02:22.704Z,5.37
2023-01-11T08:04:49.153Z,5.17
2023-01-11T08:07:15.547Z,5.27
2023-01-11T08:09:41.929Z,5.67
2023-01-11T08:12:46.833Z,5.13
2023-01-11T08:15:14.064Z,6.57
2023-01-11T08:17:40.447Z,5.37
2023-01-11T08:20:06.932Z,5.83
2023-01-11T08:22:33.937Z,5.80
2023-01-11T08:25:00.316Z,5.23
2023-01-11T08:27:26.670Z,5.90
2023-01-11T08:29:53.023Z,6.53
2023-01-11T08:32:19.360Z,7.00
2023-01-11T08:34:45.729Z,6.53
2023-01-11T08:37:12.066Z,6.17
2023-01-11T08:39:40.276Z,6.10
2023-01-11T08:42:06.639Z,5.80
2023-01-11T08:44:34.331Z,5.90
2023-01-11T08:47:02.230Z,6.73
2023-01-11T08:49:30.307Z,12.20
2023-01-11T08:51:56.949Z,5.07
2023-01-11T08:54:23.458Z,9.37
2023-01-11T08:56:49.798Z,3.70
2023-01-11T08:59:16.199Z,8.80
2023-01-11T09:01:42.645Z,9.20
2023-01-11T09:04:23.100Z,4.20
2023-01-11T09:06:51.317Z,7.97
2023-01-11T09:09:17.839Z,3.70
2023-01-11T09:11:57.209Z,5.47
2023-01-11T09:14:25.280Z,15.00
2023-01-11T09:16:52.904Z,8.03
2023-01-11T09:19:19.499Z,10.20
2023-01-11T09:21:46.483Z,12.93
2023-01-11T09:24:13.097Z,16.73
2023-01-11T09:26:41.411Z,8.43
2023-01-11T09:29:08.301Z,11.07
2023-01-11T09:31:34.827Z,10.40
2023-01-11T09:34:01.432Z,8.37
2023-01-11T09:36:28.937Z,8.67
2023-01-11T09:38:57.390Z,5.97
2023-01-11T09:41:46.483Z,6.10
2023-01-11T09:44:18.825Z,10.70
2023-01-11T09:46:49.978Z,4.90
2023-01-11T09:49:25.310Z,11.17
2023-01-11T09:51:54.512Z,10.53
2023-01-11T09:54:25.959Z,10.00
2023-01-11T09:57:18.172Z,14.17
2023-01-11T09:59:52.726Z,9.37
2023-01-11T10:02:48.105Z,17.97
2023-01-11T10:05:31.885Z,9.50
2023-01-11T10:18:27.730Z,6.70
2023-01-11T10:18:28.980Z,18.83
2023-01-11T10:20:46.484Z,14.83
2023-01-11T10:23:31.989Z,11.70
2023-01-11T10:26:03.056Z,7.07
2023-01-11T10:28:42.830Z,23.90
2023-01-11T10:31:33.906Z,15.33
2023-01-11T10:34:02.172Z,5.13
2023-01-11T10:37:05.450Z,11.63
2023-01-11T10:39:52.202Z,9.90
2023-01-11T10:42:22.582Z,9.10
2023-01-11T10:45:03.870Z,16.00
2023-01-11T10:47:42.887Z,17.43
2023-01-11T10:50:26.730Z,8.67
2023-01-11T10:53:15.583Z,7.00
2023-01-11T10:55:50.861Z,16.43
2023-01-11T10:58:26.715Z,6.00
2023-01-11T11:01:12.281Z,9.27
2023-01-11T11:04:21.453Z,9.27
2023-01-11T11:07:02.006Z,10.70
2023-01-11T11:09:40.524Z,9.73
2023-01-11T11:12:34.257Z,9.07
2023-01-11T11:15:20.408Z,13.17
2023-01-11T11:17:51.019Z,13.37
2023-01-11T11:20:28.718Z,9.27
2023-01-11T11:22:58.442Z,20.90
2023-01-11T11:25:29.765Z,7.13
2023-01-11T11:28:23.616Z,9.27
2023-01-11T11:30:54.184Z,12.47
2023-01-11T11:33:24.719Z,16.57
2023-01-11T11:36:12.139Z,11.03
2023-01-11T11:38:58.951Z,8.43
2023-01-11T11:41:25.349Z,12.60
2023-01-11T11:43:51.716Z,16.87
2023-01-11T11:46:26.383Z,4.77
2023-01-11T11:49:15.416Z,10.97
2023-01-11T11:51:43.644Z,9.80
2023-01-11T11:54:36.007Z,8.87
2023-01-11T11:57:21.099Z,8.47
2023-01-11T11:59:49.810Z,8.83
2023-01-11T12:02:31.408Z,13.03
2023-01-11T12:05:00.529Z,9.47
2023-01-11T12:07:49.748Z,22.83
2023-01-11T12:10:23.642Z,13.33
2023-01-11T12:13:01.407Z,7.87
2023-01-11T12:15:30.932Z,11.83
2023-01-11T12:18:32.767Z,10.27
2023-01-11T12:21:31.478Z,11.13
2023-01-11T12:24:06.820Z,7.33
2023-01-11T12:26:40.473Z,5.87
2023-01-11T12:29:28.370Z,7.90
2023-01-11T12:32:20.579Z,21.00
2023-01-11T12:35:25.094Z,11.80
2023-01-11T12:37:54.217Z,9.30
2023-01-11T12:40:34.435Z,6.83
2023-01-11T12:43:20.681Z,15.43
2023-01-11T12:46:00.393Z,10.13
2023-01-11T12:48:43.357Z,12.60
2023-01-11T12:51:22.592Z,6.43
2023-01-11T12:54:19.571Z,11.33
2023-01-11T12:57:13.899Z,7.60
2023-01-11T13:00:08.129Z,5.83
2023-01-11T13:03:02.201Z,8.43
2023-01-11T13:06:09.064Z,11.37
2023-01-11T13:08:47.983Z,10.63
2023-01-11T13:11:37.472Z,6.53
2023-01-11T13:14:36.160Z,9.50
2023-01-11T13:17:24.904Z,16.57
2023-01-11T13:20:09.981Z,10.53
2023-01-11T13:22:40.245Z,15.70
2023-01-11T13:25:18.381Z,13.53
2023-01-11T13:27:46.578Z,3.90
2023-01-11T13:30:14.817Z,16.40
2023-01-11T13:32:46.036Z,16.83
2023-01-11T13:35:20.062Z,9.27
2023-01-11T13:38:09.616Z,7.10
2023-01-11T13:40:42.183Z,4.10
2023-01-11T13:43:30.108Z,12.33
2023-01-11T13:46:07.036Z,15.97
2023-01-11T13:48:52.559Z,14.03
2023-01-11T13:51:38.696Z,11.93
2023-01-11T13:54:16.622Z,8.87
2023-01-11T13:56:50.642Z,7.53
2023-01-11T13:59:29.371Z,17.60
2023-01-11T14:02:01.384Z,24.27
2023-01-11T14:04:40.908Z,13.87
2023-01-11T14:07:30.400Z,12.47
2023-01-11T14:10:18.745Z,10.00
2023-01-11T14:13:01.067Z,22.57
2023-01-11T14:15:40.920Z,16.43
2023-01-11T14:18:18.097Z,10.60
2023-01-11T14:21:00.300Z,9.20
2023-01-11T14:23:44.855Z,14.33
2023-01-11T14:26:19.529Z,12.83
2023-01-11T14:29:30.992Z,12.27
2023-01-11T14:32:25.095Z,10.13
2023-01-11T14:35:10.364Z,8.43
2023-01-11T14:38:01.243Z,8.13
2023-01-11T14:40:39.358Z,6.33
2023-01-11T14:43:35.959Z,16.90
2023-01-11T14:46:53.524Z,13.03
2023-01-11T14:49:43.820Z,6.47
2023-01-11T14:52:16.175Z,6.30
2023-01-11T14:54:47.325Z,5.20
2023-01-11T14:57:40.575Z,6.33
2023-01-11T15:00:18.703Z,6.27
2023-01-11T15:03:06.064Z,9.90
2023-01-11T15:05:38.651Z,5.70
2023-01-11T15:08:13.780Z,7.50
2023-01-11T15:10:56.518Z,17.30
2023-01-11T15:13:36.798Z,14.03
2023-01-11T15:16:56.383Z,7.50
2023-01-11T15:19:28.574Z,9.87
2023-01-11T15:21:56.425Z,12.23
2023-01-11T15:24:29.864Z,11.67
2023-01-11T15:26:58.805Z,5.53
2023-01-11T15:29:35.374Z,10.57
2023-01-11T15:32:01.857Z,9.53
2023-01-11T15:34:39.424Z,6.93
2023-01-11T15:37:31.208Z,5.73
2023-01-11T15:40:03.857Z,11.30
2023-01-11T15:42:48.964Z,7.87
2023-01-11T15:46:04.694Z,13.70
2023-01-11T15:48:52.168Z,8.37
2023-01-11T15:51:40.254Z,10.67
2023-01-11T15:54:31.523Z,14.53
2023-01-11T15:57:22.809Z,5.87
2023-01-11T16:00:34.688Z,17.53
2023-01-11T16:03:30.021Z,11.93
2023-01-11T16:06:23.901Z,6.53
2023-01-11T16:08:58.608Z,6.63
2023-01-11T16:11:34.701Z,8.40
2023-01-11T16:14:17.540Z,8.67
2023-01-11T16:16:45.041Z,5.67
2023-01-11T16:19:19.848Z,7.13
2023-01-11T16:21:49.854Z,6.73
2023-01-11T16:24:20.209Z,11.63
2023-01-11T16:27:06.131Z,8.90
2023-01-11T16:29:37.695Z,14.17
2023-01-11T16:32:06.835Z,3.57
2023-01-11T16:34:41.425Z,13.63
2023-01-11T16:37:24.811Z,8.47
2023-01-11T16:39:56.361Z,8.90
2023-01-11T16:42:24.119Z,11.77
2023-01-11T16:44:59.013Z,9.80
2023-01-11T16:47:25.381Z,16.57
2023-01-11T16:50:20.545Z,9.30
2023-01-11T16:52:49.932Z,24.53
2023-01-11T16:55:20.917Z,10.17
2023-01-11T16:57:51.747Z,8.17
2023-01-11T17:00:32.404Z,11.17
2023-01-11T17:03:17.925Z,5.03
2023-01-11T17:06:07.366Z,10.83
2023-01-11T17:08:39.375Z,6.77
2023-01-11T17:11:30.791Z,3.50
2023-01-11T17:14:13.924Z,14.40
2023-01-11T17:16:44.081Z,5.07
2023-01-11T17:19:20.056Z,11.17
2023-01-11T17:21:50.374Z,7.97
2023-01-11T17:24:18.716Z,9.73
2023-01-11T17:26:49.125Z,13.17
2023-01-11T17:29:22.500Z,15.17
2023-01-11T17:31:49.448Z,9.93
2023-01-11T17:34:24.097Z,7.67
2023-01-11T17:36:50.971Z,20.53
2023-01-11T17:39:33.429Z,11.93
2023-01-11T17:42:21.518Z,6.43
2023-01-11T17:45:08.877Z,13.07
2023-01-11T17:47:38.805Z,2.97
2023-01-11T17:50:06.289Z,7.10
2023-01-11T17:52:43.726Z,10.23
2023-01-11T17:55:23.373Z,8.30
2023-01-11T17:58:10.723Z,2.83
2023-01-11T18:00:37.368Z,5.63
2023-01-11T18:03:15.667Z,3.60
2023-01-11T18:05:42.862Z,5.17
2023-01-11T18:08:19.344Z,7.40
2023-01-11T18:10:55.211Z,2.27
2023-01-11T18:13:33.818Z,9.33
2023-01-11T18:16:01.495Z,4.30
2023-01-11T18:18:48.041Z,4.20
2023-01-11T18:21:26.491Z,4.90
2023-01-11T18:24:11.107Z,3.07
2023-01-11T18:26:39.603Z,13.60
2023-01-11T18:29:06.373Z,5.67
2023-01-11T18:31:32.749Z,7.20
2023-01-11T18:34:05.630Z,4.67
2023-01-11T18:36:31.996Z,5.83
2023-01-11T18:38:58.326Z,11.83
2023-01-11T18:41:44.713Z,9.33
2023-01-11T18:44:11.871Z,10.13
2023-01-11T18:46:38.261Z,15.50
2023-01-11T18:49:04.594Z,15.40
2023-01-11T18:51:36.823Z,9.20
2023-01-11T18:54:03.349Z,10.97
2023-01-11T18:56:29.729Z,4.83
2023-01-11T18:58:56.212Z,6.40
2023-01-11T19:01:22.684Z,3.07
2023-01-11T19:03:49.443Z,5.47
2023-01-11T19:06:19.234Z,5.20
2023-01-11T19:08:45.608Z,10.47
2023-01-11T19:11:13.812Z,6.97
2023-01-11T19:13:40.206Z,12.27
2023-01-11T19:16:07.264Z,7.20
2023-01-11T19:18:35.326Z,7.57
2023-01-11T19:21:03.713Z,5.13
2023-01-11T19:23:30.515Z,5.07
2023-01-11T19:25:58.196Z,13.30
2023-01-11T19:28:24.539Z,12.23
2023-01-11T19:30:51.038Z,5.67
2023-01-11T19:33:17.607Z,12.90
2023-01-11T19:35:44.321Z,11.43
2023-01-11T19:38:10.719Z,4.47
2023-01-11T19:40:37.092Z,11.47
2023-01-11T19:43:03.525Z,8.50
2023-01-11T19:45:29.925Z,5.13
2023-01-11T19:47:58.176Z,7.07
2023-01-11T19:50:24.574Z,10.33
2023-01-11T19:52:50.918Z,14.43
2023-01-11T19:55:17.762Z,6.63
2023-01-11T19:57:44.868Z,3.63
2023-01-11T20:00:14.277Z,11.87
2023-01-11T20:02:40.972Z,2.77
2023-01-11T20:05:07.648Z,6.43
2023-01-11T20:07:34.140Z,5.97
2023-01-11T20:10:00.505Z,15.17
2023-01-11T20:12:26.864Z,12.97
2023-01-11T20:14:56.894Z,4.90
2023-01-11T20:17:23.922Z,5.67
2023-01-11T20:19:54.320Z,9.63
2023-01-11T20:22:24.530Z,5.83
2023-01-11T20:24:51.107Z,9.33
2023-01-11T20:27:17.888Z,2.83
2023-01-11T20:29:45.552Z,6.73
2023-01-11T20:32:35.010Z,14.87
2023-01-11T20:34:58.461Z,8.90
2023-01-11T20:37:24.834Z,10.47
2023-01-11T20:39:51.185Z,10.43
2023-01-11T20:42:17.558Z,8.97
2023-01-11T20:44:44.297Z,6.13
2023-01-11T20:47:10.789Z,9.43
2023-01-11T20:49:37.122Z,11.77
2023-01-11T20:52:04.178Z,10.70
2023-01-11T20:54:30.558Z,3.63
2023-01-11T20:57:01.926Z,4.90
2023-01-11T20:59:28.329Z,12.17
2023-01-11T21:01:54.724Z,8.17
2023-01-11T21:04:21.127Z,4.50
2023-01-11T21:06:48.257Z,7.80
2023-01-11T21:09:16.960Z,11.57
2023-01-11T21:11:44.249Z,4.83
2023-01-11T21:14:13.176Z,10.73
2023-01-11T21:16:41.411Z,14.07
2023-01-11T21:19:10.506Z,6.60
2023-01-11T21:21:36.871Z,3.47
2023-01-11T21:24:04.769Z,8.33
2023-01-11T21:26:31.917Z,9.73
2023-01-11T21:29:00.639Z,10.30
2023-01-11T21:31:28.884Z,8.63
2023-01-11T21:33:55.519Z,10.73
2023-01-11T21:36:24.386Z,11.27
2023-01-11T21:38:50.957Z,20.30
2023-01-11T21:41:40.105Z,11.60
2023-01-11T21:44:07.227Z,4.60
2023-01-11T21:46:33.906Z,11.97
2023-01-11T21:49:00.325Z,4.33
2023-01-11T21:51:29.639Z,4.97
2023-01-11T21:53:57.137Z,15.40
2023-01-11T21:56:23.957Z,6.77
2023-01-11T21:58:50.656Z,3.10
2023-01-11T22:01:24.176Z,11.47
2023-01-11T22:03:50.723Z,7.47
2023-01-11T22:06:17.545Z,11.33
2023-01-11T22:08:45.013Z,2.70
2023-01-11T22:11:13.304Z,6.33
2023-01-11T22:13:39.678Z,10.10
2023-01-11T22:16:10.494Z,8.37
2023-01-11T22:18:37.142Z,2.63
2023-01-11T22:21:15.271Z,5.53
2023-01-11T22:23:41.805Z,5.57
2023-01-11T22:26:11.020Z,11.30
2023-01-11T22:28:56.516Z,3.10
2023-01-11T22:31:23.831Z,14.40
2023-01-11T22:33:50.814Z,7.43
2023-01-11T22:36:17.646Z,3.03
2023-01-11T22:38:44.009Z,12.50
2023-01-11T22:41:10.775Z,4.53
2023-01-11T22:43:37.122Z,6.03
2023-01-11T22:46:03.645Z,7.73
2023-01-11T22:48:31.390Z,9.60
2023-01-11T22:50:58.153Z,10.53
2023-01-11T22:53:24.529Z,5.50
2023-01-11T22:55:50.871Z,12.70
2023-01-11T22:58:17.232Z,12.97
2023-01-11T23:00:43.610Z,3.33
2023-01-11T23:03:10.135Z,5.97
2023-01-11T23:05:36.688Z,2.70
2023-01-11T23:08:03.149Z,12.17
2023-01-11T23:10:29.500Z,9.13
2023-01-11T23:13:14.401Z,16.37
2023-01-11T23:15:40.833Z,5.40
2023-01-11T23:18:09.292Z,10.27
2023-01-11T23:20:35.667Z,13.47
2023-01-11T23:23:02.033Z,10.23
2023-01-11T23:25:28.450Z,15.23
2023-01-11T23:27:55.421Z,10.33
2023-01-11T23:30:21.950Z,9.87
2023-01-11T23:32:48.357Z,10.07
2023-01-11T23:35:14.771Z,11.03
2023-01-11T23:37:41.184Z,17.57
2023-01-11T23:40:08.510Z,7.57
2023-01-11T23:42:35.419Z,10.70
2023-01-11T23:45:01.864Z,14.73
2023-01-11T23:47:29.727Z,9.57
2023-01-11T23:50:00.251Z,8.87
2023-01-11T23:52:29.364Z,3.93
2023-01-11T23:54:55.887Z,8.40
2023-01-11T23:57:24.274Z,6.37
2023-01-11T23:59:50.960Z,17.10
